Current Weather

Fort Mcpherson

Fort Mcpherson, Canada (CZFM)

Report from: Saturday, May 21, 2022 11:00 PM UTC
Current time: Sunday, May 22, 2022 7:00 AM UTC

Nearby weather
Weather history
Weather forecast

Temperature5.0°C (41.0°F)
Wind chill3.9°C (39.0°F)
Dew point-1.0°C (30.2°F)
Winds 3 kts (1.5 m/s, 3.5 mph) Vrb
Winds variableWinds variable from North-Northeast (20°) to West (260°)
Visibility15 mi. (24.1 km)
Clouds Ceiling: Overcast 2,100 ft. (640 m)
Altimeter30.39 in.Hg (1029 mB)
Relative humidity65 %
Density altitude-1,658 ft. (-505 m)
Sea-level pressure103.0 kPa (1030 mB, 30.40 in.Hg)
Remarks Last observation of the day
Flight conditions Marginal Visual Meteorological Conditions
Raw dataCZFM 212300Z 33003KT 260V020 15SM OVC021 05/M01 A3039 RMK SC8 LAST STFD OBS/ NXT 221400Z SLP296
An error has occurred. This application may no longer respond until reloaded. Reload 🗙